sensor_id;sensor_type;location;lat;lon;timestamp;temperature;humidity
26224;DHT22;14820;48.682;8.890;2022-08-01T00:02:12;18.70;99.90
26224;DHT22;14820;48.682;8.890;2022-08-01T00:04:38;18.60;99.90
26224;DHT22;14820;48.682;8.890;2022-08-01T00:07:04;18.60;99.90
26224;DHT22;14820;48.682;8.890;2022-08-01T00:09:30;18.60;99.90
26224;DHT22;14820;48.682;8.890;2022-08-01T00:11:55;18.60;99.90
26224;DHT22;14820;48.682;8.890;2022-08-01T00:14:21;18.50;99.90
26224;DHT22;14820;48.682;8.890;2022-08-01T00:16:47;18.40;99.90
26224;DHT22;14820;48.682;8.890;2022-08-01T00:19:12;18.30;99.90
26224;DHT22;14820;48.682;8.890;2022-08-01T00:21:38;18.30;99.90
26224;DHT22;14820;48.682;8.890;2022-08-01T00:24:04;18.30;99.90
26224;DHT22;14820;48.682;8.890;2022-08-01T00:26:30;18.20;99.90
26224;DHT22;14820;48.682;8.890;2022-08-01T00:28:55;18.20;99.90
26224;DHT22;14820;48.682;8.890;2022-08-01T00:31:21;18.10;99.90
26224;DHT22;14820;48.682;8.890;2022-08-01T00:33:47;18.10;99.90
26224;DHT22;14820;48.682;8.890;2022-08-01T00:36:13;18.10;99.90
26224;DHT22;14820;48.682;8.890;2022-08-01T00:38:38;18.10;99.90
26224;DHT22;14820;48.682;8.890;2022-08-01T00:41:04;18.10;99.90
26224;DHT22;14820;48.682;8.890;2022-08-01T00:43:30;18.00;99.90
26224;DHT22;14820;48.682;8.890;2022-08-01T00:45:55;18.00;99.90
26224;DHT22;14820;48.682;8.890;2022-08-01T00:48:21;17.90;99.90
26224;DHT22;14820;48.682;8.890;2022-08-01T00:50:47;17.90;99.90
26224;DHT22;14820;48.682;8.890;2022-08-01T00:53:13;17.80;99.90
26224;DHT22;14820;48.682;8.890;2022-08-01T00:55:38;17.70;99.90
26224;DHT22;14820;48.682;8.890;2022-08-01T00:58:05;17.70;99.90
26224;DHT22;14820;48.682;8.890;2022-08-01T01:00:30;17.60;99.90
26224;DHT22;14820;48.682;8.890;2022-08-01T01:02:57;17.60;99.90
26224;DHT22;14820;48.682;8.890;2022-08-01T01:05:23;17.60;99.90
26224;DHT22;14820;48.682;8.890;2022-08-01T01:08:06;17.50;99.90
26224;DHT22;14820;48.682;8.890;2022-08-01T01:10:37;17.60;99.90
26224;DHT22;14820;48.682;8.890;2022-08-01T01:13:18;17.50;99.90
26224;DHT22;14820;48.682;8.890;2022-08-01T01:18:49;17.50;99.90
26224;DHT22;14820;48.682;8.890;2022-08-01T01:31:19;17.20;99.90
26224;DHT22;14820;48.682;8.890;2022-08-01T01:33:47;17.10;99.90
26224;DHT22;14820;48.682;8.890;2022-08-01T01:36:14;17.00;99.90
26224;DHT22;14820;48.682;8.890;2022-08-01T01:38:45;17.00;99.90
26224;DHT22;14820;48.682;8.890;2022-08-01T01:41:13;17.00;99.90
26224;DHT22;14820;48.682;8.890;2022-08-01T01:43:39;17.00;99.90
26224;DHT22;14820;48.682;8.890;2022-08-01T01:46:07;17.00;99.90
26224;DHT22;14820;48.682;8.890;2022-08-01T01:48:35;17.10;99.90
26224;DHT22;14820;48.682;8.890;2022-08-01T01:51:02;17.20;99.90
26224;DHT22;14820;48.682;8.890;2022-08-01T01:53:31;17.20;99.90
26224;DHT22;14820;48.682;8.890;2022-08-01T01:55:59;17.30;99.90
26224;DHT22;14820;48.682;8.890;2022-08-01T01:58:27;17.40;99.90
26224;DHT22;14820;48.682;8.890;2022-08-01T02:00:55;17.40;99.90
26224;DHT22;14820;48.682;8.890;2022-08-01T02:03:23;17.40;99.90
26224;DHT22;14820;48.682;8.890;2022-08-01T02:05:51;17.30;99.90
26224;DHT22;14820;48.682;8.890;2022-08-01T02:08:18;17.30;99.90
26224;DHT22;14820;48.682;8.890;2022-08-01T02:10:45;17.20;99.90
26224;DHT22;14820;48.682;8.890;2022-08-01T02:13:36;17.00;99.90
26224;DHT22;14820;48.682;8.890;2022-08-01T02:16:03;16.90;99.90
26224;DHT22;14820;48.682;8.890;2022-08-01T02:18:29;16.80;99.90
26224;DHT22;14820;48.682;8.890;2022-08-01T02:20:56;16.80;99.90
26224;DHT22;14820;48.682;8.890;2022-08-01T02:23:24;16.70;99.90
26224;DHT22;14820;48.682;8.890;2022-08-01T02:25:53;16.70;99.90
26224;DHT22;14820;48.682;8.890;2022-08-01T02:28:25;16.60;99.90
26224;DHT22;14820;48.682;8.890;2022-08-01T02:31:02;16.60;99.90
26224;DHT22;14820;48.682;8.890;2022-08-01T02:33:41;16.60;99.90
26224;DHT22;14820;48.682;8.890;2022-08-01T02:36:08;16.60;99.90
26224;DHT22;14820;48.682;8.890;2022-08-01T02:38:40;16.60;99.90
26224;DHT22;14820;48.682;8.890;2022-08-01T02:41:21;16.60;99.90
26224;DHT22;14820;48.682;8.890;2022-08-01T02:43:49;16.70;99.90
26224;DHT22;14820;48.682;8.890;2022-08-01T02:46:41;16.70;99.90
26224;DHT22;14820;48.682;8.890;2022-08-01T02:49:10;16.70;99.90
26224;DHT22;14820;48.682;8.890;2022-08-01T02:51:37;16.70;99.90
26224;DHT22;14820;48.682;8.890;2022-08-01T02:54:06;16.70;99.90
26224;DHT22;14820;48.682;8.890;2022-08-01T02:56:34;16.70;99.90
26224;DHT22;14820;48.682;8.890;2022-08-01T02:59:11;16.70;99.90
26224;DHT22;14820;48.682;8.890;2022-08-01T03:01:38;16.60;99.90
26224;DHT22;14820;48.682;8.890;2022-08-01T03:04:05;16.60;99.90
26224;DHT22;14820;48.682;8.890;2022-08-01T03:06:33;16.50;99.90
26224;DHT22;14820;48.682;8.890;2022-08-01T03:09:01;16.50;99.90
26224;DHT22;14820;48.682;8.890;2022-08-01T03:11:29;16.40;99.90
26224;DHT22;14820;48.682;8.890;2022-08-01T03:13:59;16.50;99.90
26224;DHT22;14820;48.682;8.890;2022-08-01T03:16:25;16.50;99.90
26224;DHT22;14820;48.682;8.890;2022-08-01T03:18:53;16.40;99.90
26224;DHT22;14820;48.682;8.890;2022-08-01T03:21:22;16.40;99.90
26224;DHT22;14820;48.682;8.890;2022-08-01T03:23:50;16.40;99.90
26224;DHT22;14820;48.682;8.890;2022-08-01T03:26:17;16.30;99.90
26224;DHT22;14820;48.682;8.890;2022-08-01T03:28:46;16.30;99.90
26224;DHT22;14820;48.682;8.890;2022-08-01T03:31:14;16.30;99.90
26224;DHT22;14820;48.682;8.890;2022-08-01T03:33:40;16.20;99.90
26224;DHT22;14820;48.682;8.890;2022-08-01T03:36:09;16.20;99.90
26224;DHT22;14820;48.682;8.890;2022-08-01T03:38:39;16.20;99.90
26224;DHT22;14820;48.682;8.890;2022-08-01T03:41:15;16.20;99.90
26224;DHT22;14820;48.682;8.890;2022-08-01T03:43:53;16.20;99.90
26224;DHT22;14820;48.682;8.890;2022-08-01T03:46:25;16.30;99.90
26224;DHT22;14820;48.682;8.890;2022-08-01T03:48:55;16.40;99.90
26224;DHT22;14820;48.682;8.890;2022-08-01T03:51:25;16.40;99.90
26224;DHT22;14820;48.682;8.890;2022-08-01T03:53:51;16.40;99.90
26224;DHT22;14820;48.682;8.890;2022-08-01T03:56:19;16.30;99.90
26224;DHT22;14820;48.682;8.890;2022-08-01T03:58:46;16.20;99.90
26224;DHT22;14820;48.682;8.890;2022-08-01T04:01:12;16.10;99.90
26224;DHT22;14820;48.682;8.890;2022-08-01T04:03:38;16.10;99.90
26224;DHT22;14820;48.682;8.890;2022-08-01T04:06:05;16.00;99.90
26224;DHT22;14820;48.682;8.890;2022-08-01T04:08:35;16.00;99.90
26224;DHT22;14820;48.682;8.890;2022-08-01T04:11:01;16.00;99.90
26224;DHT22;14820;48.682;8.890;2022-08-01T04:13:27;16.00;99.90
26224;DHT22;14820;48.682;8.890;2022-08-01T04:15:52;16.00;99.90
26224;DHT22;14820;48.682;8.890;2022-08-01T04:18:18;16.00;99.90
26224;DHT22;14820;48.682;8.890;2022-08-01T04:20:46;16.10;99.90
26224;DHT22;14820;48.682;8.890;2022-08-01T04:23:13;16.10;99.90
26224;DHT22;14820;48.682;8.890;2022-08-01T04:25:41;16.10;99.90
26224;DHT22;14820;48.682;8.890;2022-08-01T04:28:10;16.10;99.90
26224;DHT22;14820;48.682;8.890;2022-08-01T04:30:42;16.10;99.90
26224;DHT22;14820;48.682;8.890;2022-08-01T04:33:11;16.10;99.90
26224;DHT22;14820;48.682;8.890;2022-08-01T04:35:39;16.10;99.90
26224;DHT22;14820;48.682;8.890;2022-08-01T04:38:08;16.10;99.90
26224;DHT22;14820;48.682;8.890;2022-08-01T04:40:35;16.10;99.90
26224;DHT22;14820;48.682;8.890;2022-08-01T04:43:02;16.20;99.90
26224;DHT22;14820;48.682;8.890;2022-08-01T04:45:28;16.10;99.90
26224;DHT22;14820;48.682;8.890;2022-08-01T04:47:54;16.10;99.90
26224;DHT22;14820;48.682;8.890;2022-08-01T04:50:21;16.20;99.90
26224;DHT22;14820;48.682;8.890;2022-08-01T04:52:47;16.30;99.90
26224;DHT22;14820;48.682;8.890;2022-08-01T04:55:13;16.30;99.90
26224;DHT22;14820;48.682;8.890;2022-08-01T04:57:44;16.20;99.90
26224;DHT22;14820;48.682;8.890;2022-08-01T05:00:11;16.10;99.90
26224;DHT22;14820;48.682;8.890;2022-08-01T05:02:36;16.10;99.90
26224;DHT22;14820;48.682;8.890;2022-08-01T05:05:03;16.00;99.90
26224;DHT22;14820;48.682;8.890;2022-08-01T05:07:31;16.10;99.90
26224;DHT22;14820;48.682;8.890;2022-08-01T05:09:57;16.20;99.90
26224;DHT22;14820;48.682;8.890;2022-08-01T05:12:23;16.30;99.90
26224;DHT22;14820;48.682;8.890;2022-08-01T05:14:48;16.40;99.90
26224;DHT22;14820;48.682;8.890;2022-08-01T05:17:14;16.50;99.90
26224;DHT22;14820;48.682;8.890;2022-08-01T05:19:40;16.60;99.90
26224;DHT22;14820;48.682;8.890;2022-08-01T05:22:07;16.60;99.90
26224;DHT22;14820;48.682;8.890;2022-08-01T05:24:38;16.50;99.90
26224;DHT22;14820;48.682;8.890;2022-08-01T05:27:04;16.50;99.90
26224;DHT22;14820;48.682;8.890;2022-08-01T05:29:31;16.40;99.90
26224;DHT22;14820;48.682;8.890;2022-08-01T05:31:57;16.50;99.90
26224;DHT22;14820;48.682;8.890;2022-08-01T05:34:25;16.50;99.90
26224;DHT22;14820;48.682;8.890;2022-08-01T05:36:50;16.50;99.90
26224;DHT22;14820;48.682;8.890;2022-08-01T05:39:16;16.60;99.90
26224;DHT22;14820;48.682;8.890;2022-08-01T05:41:42;16.70;99.90
26224;DHT22;14820;48.682;8.890;2022-08-01T05:44:08;16.80;99.90
26224;DHT22;14820;48.682;8.890;2022-08-01T05:46:35;16.90;99.90
26224;DHT22;14820;48.682;8.890;2022-08-01T05:49:02;16.90;99.90
26224;DHT22;14820;48.682;8.890;2022-08-01T05:51:28;17.00;99.90
26224;DHT22;14820;48.682;8.890;2022-08-01T05:53:54;17.10;99.90
26224;DHT22;14820;48.682;8.890;2022-08-01T05:56:21;17.20;99.90
26224;DHT22;14820;48.682;8.890;2022-08-01T05:58:47;17.30;99.90
26224;DHT22;14820;48.682;8.890;2022-08-01T06:01:13;17.40;99.90
26224;DHT22;14820;48.682;8.890;2022-08-01T06:03:39;17.50;99.90
26224;DHT22;14820;48.682;8.890;2022-08-01T06:06:05;17.60;99.90
26224;DHT22;14820;48.682;8.890;2022-08-01T06:08:31;17.70;99.90
26224;DHT22;14820;48.682;8.890;2022-08-01T06:10:57;17.70;99.90
26224;DHT22;14820;48.682;8.890;2022-08-01T06:13:23;17.80;99.90
26224;DHT22;14820;48.682;8.890;2022-08-01T06:15:49;17.90;99.90
26224;DHT22;14820;48.682;8.890;2022-08-01T06:18:15;18.10;99.90
26224;DHT22;14820;48.682;8.890;2022-08-01T06:20:42;18.20;99.90
26224;DHT22;14820;48.682;8.890;2022-08-01T06:23:09;18.30;99.90
26224;DHT22;14820;48.682;8.890;2022-08-01T06:25:35;18.40;99.90
26224;DHT22;14820;48.682;8.890;2022-08-01T06:28:01;18.50;99.90
26224;DHT22;14820;48.682;8.890;2022-08-01T06:30:27;18.60;99.90
26224;DHT22;14820;48.682;8.890;2022-08-01T06:32:52;18.80;99.90
26224;DHT22;14820;48.682;8.890;2022-08-01T06:35:21;18.80;99.90
26224;DHT22;14820;48.682;8.890;2022-08-01T06:37:46;19.00;99.90
26224;DHT22;14820;48.682;8.890;2022-08-01T06:40:12;19.10;99.90
26224;DHT22;14820;48.682;8.890;2022-08-01T06:42:38;19.20;99.90
26224;DHT22;14820;48.682;8.890;2022-08-01T06:45:09;19.40;99.90
26224;DHT22;14820;48.682;8.890;2022-08-01T06:47:36;19.50;99.90
26224;DHT22;14820;48.682;8.890;2022-08-01T06:50:02;19.60;99.90
26224;DHT22;14820;48.682;8.890;2022-08-01T06:52:28;19.70;99.90
26224;DHT22;14820;48.682;8.890;2022-08-01T06:54:54;19.80;99.90
26224;DHT22;14820;48.682;8.890;2022-08-01T06:57:19;20.00;99.90
26224;DHT22;14820;48.682;8.890;2022-08-01T06:59:45;20.10;99.90
26224;DHT22;14820;48.682;8.890;2022-08-01T07:02:11;20.20;99.90
26224;DHT22;14820;48.682;8.890;2022-08-01T07:04:37;20.30;99.90
26224;DHT22;14820;48.682;8.890;2022-08-01T07:07:02;20.40;99.90
26224;DHT22;14820;48.682;8.890;2022-08-01T07:09:28;20.60;99.90
26224;DHT22;14820;48.682;8.890;2022-08-01T07:11:54;20.70;99.90
26224;DHT22;14820;48.682;8.890;2022-08-01T07:14:21;20.70;99.90
26224;DHT22;14820;48.682;8.890;2022-08-01T07:16:47;20.80;99.90
26224;DHT22;14820;48.682;8.890;2022-08-01T07:19:13;20.90;99.90
26224;DHT22;14820;48.682;8.890;2022-08-01T07:21:39;21.00;99.90
26224;DHT22;14820;48.682;8.890;2022-08-01T07:24:06;21.10;99.90
26224;DHT22;14820;48.682;8.890;2022-08-01T07:26:32;21.20;99.90
26224;DHT22;14820;48.682;8.890;2022-08-01T07:28:58;21.20;99.90
26224;DHT22;14820;48.682;8.890;2022-08-01T07:31:23;21.30;99.90
26224;DHT22;14820;48.682;8.890;2022-08-01T07:33:50;21.40;99.90
26224;DHT22;14820;48.682;8.890;2022-08-01T07:36:18;21.40;99.90
26224;DHT22;14820;48.682;8.890;2022-08-01T07:38:45;21.50;99.90
26224;DHT22;14820;48.682;8.890;2022-08-01T07:41:11;21.60;99.90
26224;DHT22;14820;48.682;8.890;2022-08-01T07:43:37;21.70;99.90
26224;DHT22;14820;48.682;8.890;2022-08-01T07:46:06;21.70;99.90
26224;DHT22;14820;48.682;8.890;2022-08-01T07:48:31;21.80;99.90
26224;DHT22;14820;48.682;8.890;2022-08-01T07:50:57;21.80;99.90
26224;DHT22;14820;48.682;8.890;2022-08-01T07:53:23;21.90;99.90
26224;DHT22;14820;48.682;8.890;2022-08-01T07:55:49;22.00;99.90
26224;DHT22;14820;48.682;8.890;2022-08-01T07:58:15;22.00;99.90
26224;DHT22;14820;48.682;8.890;2022-08-01T08:00:41;22.10;99.90
26224;DHT22;14820;48.682;8.890;2022-08-01T08:03:07;22.20;99.90
26224;DHT22;14820;48.682;8.890;2022-08-01T08:05:33;22.20;99.90
26224;DHT22;14820;48.682;8.890;2022-08-01T08:08:01;22.30;99.90
26224;DHT22;14820;48.682;8.890;2022-08-01T08:10:27;22.30;99.90
26224;DHT22;14820;48.682;8.890;2022-08-01T08:12:53;22.40;99.90
26224;DHT22;14820;48.682;8.890;2022-08-01T08:15:18;22.50;99.90
26224;DHT22;14820;48.682;8.890;2022-08-01T08:17:44;22.50;99.90
26224;DHT22;14820;48.682;8.890;2022-08-01T08:20:10;22.60;99.90
26224;DHT22;14820;48.682;8.890;2022-08-01T08:22:36;22.80;99.90
26224;DHT22;14820;48.682;8.890;2022-08-01T08:25:02;23.00;99.90
26224;DHT22;14820;48.682;8.890;2022-08-01T08:27:28;23.00;99.90
26224;DHT22;14820;48.682;8.890;2022-08-01T08:29:54;23.10;99.90
26224;DHT22;14820;48.682;8.890;2022-08-01T08:32:19;23.10;99.90
26224;DHT22;14820;48.682;8.890;2022-08-01T08:34:46;23.20;99.90
26224;DHT22;14820;48.682;8.890;2022-08-01T08:37:11;23.20;99.90
26224;DHT22;14820;48.682;8.890;2022-08-01T08:39:38;23.30;99.90
26224;DHT22;14820;48.682;8.890;2022-08-01T08:42:07;23.40;99.90
26224;DHT22;14820;48.682;8.890;2022-08-01T08:44:33;23.40;99.90
26224;DHT22;14820;48.682;8.890;2022-08-01T08:47:03;23.40;99.90
26224;DHT22;14820;48.682;8.890;2022-08-01T08:49:31;23.50;99.90
26224;DHT22;14820;48.682;8.890;2022-08-01T08:51:59;23.50;99.90
26224;DHT22;14820;48.682;8.890;2022-08-01T08:54:25;23.60;99.90
26224;DHT22;14820;48.682;8.890;2022-08-01T08:56:53;23.60;99.90
26224;DHT22;14820;48.682;8.890;2022-08-01T08:59:19;23.60;99.90
26224;DHT22;14820;48.682;8.890;2022-08-01T09:01:46;23.60;99.90
26224;DHT22;14820;48.682;8.890;2022-08-01T09:04:13;23.60;99.90
26224;DHT22;14820;48.682;8.890;2022-08-01T09:06:39;23.60;99.90
26224;DHT22;14820;48.682;8.890;2022-08-01T09:09:06;23.60;99.90
26224;DHT22;14820;48.682;8.890;2022-08-01T09:11:32;23.70;99.90
26224;DHT22;14820;48.682;8.890;2022-08-01T09:14:18;23.80;99.90
26224;DHT22;14820;48.682;8.890;2022-08-01T09:17:00;23.90;99.90
26224;DHT22;14820;48.682;8.890;2022-08-01T09:19:38;23.90;99.90
26224;DHT22;14820;48.682;8.890;2022-08-01T09:22:07;24.00;99.90
26224;DHT22;14820;48.682;8.890;2022-08-01T09:24:34;24.20;99.90
26224;DHT22;14820;48.682;8.890;2022-08-01T09:27:00;24.30;99.90
26224;DHT22;14820;48.682;8.890;2022-08-01T09:29:30;24.30;99.90
26224;DHT22;14820;48.682;8.890;2022-08-01T09:31:57;24.30;99.90
26224;DHT22;14820;48.682;8.890;2022-08-01T09:34:26;24.20;99.90
26224;DHT22;14820;48.682;8.890;2022-08-01T09:37:01;24.20;99.90
26224;DHT22;14820;48.682;8.890;2022-08-01T09:39:28;24.20;99.90
26224;DHT22;14820;48.682;8.890;2022-08-01T09:41:55;24.30;99.90
26224;DHT22;14820;48.682;8.890;2022-08-01T09:44:40;24.40;99.90
26224;DHT22;14820;48.682;8.890;2022-08-01T09:47:06;24.50;99.90
26224;DHT22;14820;48.682;8.890;2022-08-01T09:49:34;24.60;99.90
26224;DHT22;14820;48.682;8.890;2022-08-01T09:52:30;24.70;99.90
26224;DHT22;14820;48.682;8.890;2022-08-01T09:55:02;24.80;99.90
26224;DHT22;14820;48.682;8.890;2022-08-01T09:57:29;24.80;99.90
26224;DHT22;14820;48.682;8.890;2022-08-01T09:59:57;24.80;99.90
26224;DHT22;14820;48.682;8.890;2022-08-01T10:02:34;24.80;99.90
26224;DHT22;14820;48.682;8.890;2022-08-01T10:05:02;24.90;99.90
26224;DHT22;14820;48.682;8.890;2022-08-01T10:07:28;25.00;99.90
26224;DHT22;14820;48.682;8.890;2022-08-01T10:09:54;25.10;99.90
26224;DHT22;14820;48.682;8.890;2022-08-01T10:12:22;25.00;99.90
26224;DHT22;14820;48.682;8.890;2022-08-01T10:14:50;24.90;99.90
26224;DHT22;14820;48.682;8.890;2022-08-01T10:17:19;24.80;99.90
26224;DHT22;14820;48.682;8.890;2022-08-01T10:19:45;24.90;99.90
26224;DHT22;14820;48.682;8.890;2022-08-01T10:22:12;25.00;99.90
26224;DHT22;14820;48.682;8.890;2022-08-01T10:24:44;25.20;99.90
26224;DHT22;14820;48.682;8.890;2022-08-01T10:27:13;25.30;99.90
26224;DHT22;14820;48.682;8.890;2022-08-01T10:30:03;25.40;99.90
26224;DHT22;14820;48.682;8.890;2022-08-01T10:32:31;25.60;99.90
26224;DHT22;14820;48.682;8.890;2022-08-01T10:34:58;25.70;99.90
26224;DHT22;14820;48.682;8.890;2022-08-01T10:37:24;25.80;99.90
26224;DHT22;14820;48.682;8.890;2022-08-01T10:39:51;25.70;99.90
26224;DHT22;14820;48.682;8.890;2022-08-01T10:42:18;25.70;99.90
26224;DHT22;14820;48.682;8.890;2022-08-01T10:44:44;25.50;99.90
26224;DHT22;14820;48.682;8.890;2022-08-01T10:47:15;25.40;99.90
26224;DHT22;14820;48.682;8.890;2022-08-01T10:50:44;25.30;99.90
26224;DHT22;14820;48.682;8.890;2022-08-01T10:52:35;25.20;99.90
26224;DHT22;14820;48.682;8.890;2022-08-01T10:55:05;25.10;99.90
26224;DHT22;14820;48.682;8.890;2022-08-01T10:57:47;25.00;99.90
26224;DHT22;14820;48.682;8.890;2022-08-01T11:00:18;24.90;99.90
26224;DHT22;14820;48.682;8.890;2022-08-01T11:02:57;24.80;99.90
26224;DHT22;14820;48.682;8.890;2022-08-01T11:05:24;24.80;99.90
26224;DHT22;14820;48.682;8.890;2022-08-01T11:07:54;24.70;99.90
26224;DHT22;14820;48.682;8.890;2022-08-01T11:12:52;25.10;99.90
26224;DHT22;14820;48.682;8.890;2022-08-01T11:15:19;25.20;99.90
26224;DHT22;14820;48.682;8.890;2022-08-01T11:17:53;25.50;99.90
26224;DHT22;14820;48.682;8.890;2022-08-01T11:20:23;25.60;99.90
26224;DHT22;14820;48.682;8.890;2022-08-01T11:30:46;26.00;99.90
26224;DHT22;14820;48.682;8.890;2022-08-01T11:33:13;26.30;99.90
26224;DHT22;14820;48.682;8.890;2022-08-01T11:38:45;26.10;99.70
26224;DHT22;14820;48.682;8.890;2022-08-01T11:46:59;25.60;99.40
26224;DHT22;14820;48.682;8.890;2022-08-01T11:52:27;25.60;99.90
26224;DHT22;14820;48.682;8.890;2022-08-01T11:55:06;25.70;99.20
26224;DHT22;14820;48.682;8.890;2022-08-01T11:57:33;25.90;99.00
26224;DHT22;14820;48.682;8.890;2022-08-01T12:00:16;26.00;99.30
26224;DHT22;14820;48.682;8.890;2022-08-01T12:02:42;26.30;99.00
26224;DHT22;14820;48.682;8.890;2022-08-01T12:05:13;26.50;97.40
26224;DHT22;14820;48.682;8.890;2022-08-01T12:07:41;26.50;96.80
26224;DHT22;14820;48.682;8.890;2022-08-01T12:12:34;26.60;97.10
26224;DHT22;14820;48.682;8.890;2022-08-01T12:15:04;26.90;97.00
26224;DHT22;14820;48.682;8.890;2022-08-01T12:17:41;26.90;96.60
26224;DHT22;14820;48.682;8.890;2022-08-01T12:20:09;26.80;96.10
26224;DHT22;14820;48.682;8.890;2022-08-01T12:22:36;26.70;96.10
26224;DHT22;14820;48.682;8.890;2022-08-01T12:25:15;26.70;96.20
26224;DHT22;14820;48.682;8.890;2022-08-01T12:27:43;26.80;96.30
26224;DHT22;14820;48.682;8.890;2022-08-01T12:30:17;26.90;95.50
26224;DHT22;14820;48.682;8.890;2022-08-01T12:32:45;26.90;95.80
26224;DHT22;14820;48.682;8.890;2022-08-01T12:35:17;26.90;96.00
26224;DHT22;14820;48.682;8.890;2022-08-01T12:37:47;27.00;95.70
26224;DHT22;14820;48.682;8.890;2022-08-01T12:40:17;27.00;95.60
26224;DHT22;14820;48.682;8.890;2022-08-01T12:42:45;27.10;95.10
26224;DHT22;14820;48.682;8.890;2022-08-01T12:45:15;27.20;95.10
26224;DHT22;14820;48.682;8.890;2022-08-01T12:47:41;27.20;94.30
26224;DHT22;14820;48.682;8.890;2022-08-01T12:50:14;27.10;94.50
26224;DHT22;14820;48.682;8.890;2022-08-01T12:52:40;27.00;93.70
26224;DHT22;14820;48.682;8.890;2022-08-01T12:55:15;26.90;93.20
26224;DHT22;14820;48.682;8.890;2022-08-01T12:57:45;26.80;93.40
26224;DHT22;14820;48.682;8.890;2022-08-01T13:00:16;26.70;94.20
26224;DHT22;14820;48.682;8.890;2022-08-01T13:02:44;26.70;94.40
26224;DHT22;14820;48.682;8.890;2022-08-01T13:05:10;26.60;94.50
26224;DHT22;14820;48.682;8.890;2022-08-01T13:07:49;26.60;94.20
26224;DHT22;14820;48.682;8.890;2022-08-01T13:10:25;26.50;94.00
26224;DHT22;14820;48.682;8.890;2022-08-01T13:12:52;26.40;94.00
26224;DHT22;14820;48.682;8.890;2022-08-01T13:15:22;26.50;94.50
26224;DHT22;14820;48.682;8.890;2022-08-01T13:17:50;26.60;94.30
26224;DHT22;14820;48.682;8.890;2022-08-01T13:20:48;26.60;94.00
26224;DHT22;14820;48.682;8.890;2022-08-01T13:23:16;26.60;93.70
26224;DHT22;14820;48.682;8.890;2022-08-01T13:25:52;26.60;93.90
26224;DHT22;14820;48.682;8.890;2022-08-01T13:28:22;26.80;94.10
26224;DHT22;14820;48.682;8.890;2022-08-01T13:31:06;27.00;93.50
26224;DHT22;14820;48.682;8.890;2022-08-01T13:33:45;27.20;93.60
26224;DHT22;14820;48.682;8.890;2022-08-01T13:36:12;27.20;93.60
26224;DHT22;14820;48.682;8.890;2022-08-01T13:38:38;27.30;94.10
26224;DHT22;14820;48.682;8.890;2022-08-01T13:41:23;27.20;94.10
26224;DHT22;14820;48.682;8.890;2022-08-01T13:43:49;27.10;94.40
26224;DHT22;14820;48.682;8.890;2022-08-01T13:46:14;27.00;94.50
26224;DHT22;14820;48.682;8.890;2022-08-01T13:48:40;26.90;95.10
26224;DHT22;14820;48.682;8.890;2022-08-01T13:51:06;26.70;95.20
26224;DHT22;14820;48.682;8.890;2022-08-01T13:53:32;26.60;95.30
26224;DHT22;14820;48.682;8.890;2022-08-01T13:55:57;26.60;95.70
26224;DHT22;14820;48.682;8.890;2022-08-01T13:58:23;26.60;95.60
26224;DHT22;14820;48.682;8.890;2022-08-01T14:00:49;26.60;95.60
26224;DHT22;14820;48.682;8.890;2022-08-01T14:03:15;26.60;96.00
26224;DHT22;14820;48.682;8.890;2022-08-01T14:05:42;26.50;95.70
26224;DHT22;14820;48.682;8.890;2022-08-01T14:08:08;26.50;95.80
26224;DHT22;14820;48.682;8.890;2022-08-01T14:10:34;26.60;95.60
26224;DHT22;14820;48.682;8.890;2022-08-01T14:13:00;26.70;96.10
26224;DHT22;14820;48.682;8.890;2022-08-01T14:15:26;26.80;95.70
26224;DHT22;14820;48.682;8.890;2022-08-01T14:17:52;26.90;94.90
26224;DHT22;14820;48.682;8.890;2022-08-01T14:20:18;27.00;94.50
26224;DHT22;14820;48.682;8.890;2022-08-01T14:22:48;27.10;93.60
26224;DHT22;14820;48.682;8.890;2022-08-01T14:25:13;27.20;93.20
26224;DHT22;14820;48.682;8.890;2022-08-01T14:27:39;27.20;92.80
26224;DHT22;14820;48.682;8.890;2022-08-01T14:30:07;27.10;92.90
26224;DHT22;14820;48.682;8.890;2022-08-01T14:32:34;27.10;93.30
26224;DHT22;14820;48.682;8.890;2022-08-01T14:35:04;27.10;93.40
26224;DHT22;14820;48.682;8.890;2022-08-01T14:37:30;27.00;94.10
26224;DHT22;14820;48.682;8.890;2022-08-01T14:39:57;26.90;94.50
26224;DHT22;14820;48.682;8.890;2022-08-01T14:42:23;26.80;94.60
26224;DHT22;14820;48.682;8.890;2022-08-01T14:44:49;26.80;95.30
26224;DHT22;14820;48.682;8.890;2022-08-01T14:47:14;26.70;94.90
26224;DHT22;14820;48.682;8.890;2022-08-01T14:49:40;26.70;95.10
26224;DHT22;14820;48.682;8.890;2022-08-01T14:52:06;26.70;95.50
26224;DHT22;14820;48.682;8.890;2022-08-01T14:54:31;26.60;95.50
26224;DHT22;14820;48.682;8.890;2022-08-01T14:56:57;26.60;96.00
26224;DHT22;14820;48.682;8.890;2022-08-01T14:59:23;26.60;96.20
26224;DHT22;14820;48.682;8.890;2022-08-01T15:01:48;26.60;96.10
26224;DHT22;14820;48.682;8.890;2022-08-01T15:04:14;26.60;96.10
26224;DHT22;14820;48.682;8.890;2022-08-01T15:06:39;26.60;96.50
26224;DHT22;14820;48.682;8.890;2022-08-01T15:09:05;26.50;96.30
26224;DHT22;14820;48.682;8.890;2022-08-01T15:11:31;26.50;96.50
26224;DHT22;14820;48.682;8.890;2022-08-01T15:13:57;26.40;96.30
26224;DHT22;14820;48.682;8.890;2022-08-01T15:16:41;26.40;96.20
26224;DHT22;14820;48.682;8.890;2022-08-01T15:19:07;26.30;96.30
26224;DHT22;14820;48.682;8.890;2022-08-01T15:21:33;26.40;96.40
26224;DHT22;14820;48.682;8.890;2022-08-01T15:23:59;26.40;96.50
26224;DHT22;14820;48.682;8.890;2022-08-01T15:26:24;26.40;96.40
26224;DHT22;14820;48.682;8.890;2022-08-01T15:28:50;26.40;96.60
26224;DHT22;14820;48.682;8.890;2022-08-01T15:31:16;26.40;96.40
26224;DHT22;14820;48.682;8.890;2022-08-01T15:33:41;26.40;96.60
26224;DHT22;14820;48.682;8.890;2022-08-01T15:36:07;26.40;96.20
26224;DHT22;14820;48.682;8.890;2022-08-01T15:38:33;26.30;95.90
26224;DHT22;14820;48.682;8.890;2022-08-01T15:40:58;26.30;95.80
26224;DHT22;14820;48.682;8.890;2022-08-01T15:43:24;26.30;95.90
26224;DHT22;14820;48.682;8.890;2022-08-01T15:45:50;26.30;96.00
26224;DHT22;14820;48.682;8.890;2022-08-01T15:48:16;26.20;95.80
26224;DHT22;14820;48.682;8.890;2022-08-01T15:50:42;26.20;96.00
26224;DHT22;14820;48.682;8.890;2022-08-01T15:53:08;26.20;96.20
26224;DHT22;14820;48.682;8.890;2022-08-01T15:55:37;26.20;96.20
26224;DHT22;14820;48.682;8.890;2022-08-01T15:58:03;26.10;96.10
26224;DHT22;14820;48.682;8.890;2022-08-01T16:00:30;26.10;96.10
26224;DHT22;14820;48.682;8.890;2022-08-01T16:02:55;26.10;96.40
26224;DHT22;14820;48.682;8.890;2022-08-01T16:05:22;26.00;96.20
26224;DHT22;14820;48.682;8.890;2022-08-01T16:07:48;26.00;96.10
26224;DHT22;14820;48.682;8.890;2022-08-01T16:10:14;25.90;96.20
26224;DHT22;14820;48.682;8.890;2022-08-01T16:12:39;25.90;96.30
26224;DHT22;14820;48.682;8.890;2022-08-01T16:15:06;25.80;96.20